Time;durP1;ratioP1;P1;durP2;ratioP2;P2;SDS_P1;SDS_P2;PMS_P1;PMS_P2;Temp;Humidity;BMP_temperature;BMP_pressure;BME280_temperature;BME280_humidity;BME280_pressure;Samples;Min_cycle;Max_cycle;Signal;HPM_P1;HPM_P2
2021/12/13 00:00:18;;;;;;;;;17.75;16.50;;;;;;;;5115140;27;45461;-77
2021/12/13 00:02:56;;;;;;;;;14.50;14.50;;;;;;;;5092278;27;45406;-76
2021/12/13 00:05:39;;;;;;;;;21.00;19.25;;;;;;;;5104279;27;46417;-78
2021/12/13 00:08:09;;;;;;;;;13.50;13.50;;;;;;;;5085218;27;46242;-78
2021/12/13 00:10:39;;;;;;;;;14.50;13.25;;;;;;;;5104830;27;45410;-75
2021/12/13 00:13:07;;;;;;;;;15.75;15.75;;;;;;;;5101616;27;45365;-78
2021/12/13 00:15:35;;;;;;;;;14.25;13.00;;;;;;;;5083674;27;46467;-78
2021/12/13 00:18:04;;;;;;;;;16.25;14.75;;;;;;;;5103638;27;45573;-78
2021/12/13 00:20:35;;;;;;;;;19.00;19.00;;;;;;;;5085597;27;45356;-78
2021/12/13 00:23:03;;;;;;;;;14.00;14.00;;;;;;;;5103979;27;45400;-77
2021/12/13 00:25:29;;;;;;;;;16.25;15.00;;;;;;;;5103371;27;46283;-76
2021/12/13 00:27:59;;;;;;;;;17.50;14.50;;;;;;;;5100300;27;45197;-78
2021/12/13 00:30:34;;;;;;;;;12.25;12.25;;;;;;;;5093976;27;45415;-78
2021/12/13 00:32:59;;;;;;;;;15.00;14.00;;;;;;;;5113627;27;45494;-77
2021/12/13 00:35:33;;;;;;;;;14.50;12.75;;;;;;;;5112300;27;45498;-77
2021/12/13 00:38:01;;;;;;;;;18.00;16.00;;;;;;;;5092433;27;45382;-78
2021/12/13 00:40:32;;;;;;;;;15.75;14.00;;;;;;;;5085383;27;45519;-79
2021/12/13 00:43:02;;;;;;;;;15.00;14.75;;;;;;;;5100838;27;45368;-77
2021/12/13 00:45:30;;;;;;;;;13.50;13.00;;;;;;;;5096298;27;48401;-76
2021/12/13 00:47:56;;;;;;;;;11.00;11.00;;;;;;;;5095016;27;45422;-79
2021/12/13 00:50:24;;;;;;;;;15.25;14.75;;;;;;;;5111988;27;45471;-77
2021/12/13 00:52:49;;;;;;;;;12.00;12.00;;;;;;;;5112156;27;45527;-78
2021/12/13 00:55:15;;;;;;;;;15.25;13.50;;;;;;;;5095496;27;48544;-77
2021/12/13 00:57:42;;;;;;;;;11.25;10.25;;;;;;;;5114869;27;45407;-77
2021/12/13 01:00:19;;;;;;;;;13.75;12.25;;;;;;;;5094841;27;45454;-78
2021/12/13 01:02:44;;;;;;;;;14.50;14.50;;;;;;;;5111090;27;45375;-77
2021/12/13 01:05:15;;;;;;;;;13.25;13.00;;;;;;;;5111630;27;45887;-77
2021/12/13 01:07:56;;;;;;;;;11.75;11.75;;;;;;;;5114921;27;45267;-77
2021/12/13 01:10:40;;;;;;;;;12.25;10.25;;;;;;;;5133337;27;45181;-77
2021/12/13 01:13:24;;;;;;;;;13.00;11.75;;;;;;;;5081338;27;45508;-77
2021/12/13 01:15:55;;;;;;;;;11.00;11.00;;;;;;;;5081069;27;47785;-78
2021/12/13 01:18:32;;;;;;;;;12.00;12.00;;;;;;;;5099386;27;45801;-77
2021/12/13 01:21:28;;;;;;;;;14.00;10.50;;;;;;;;5095451;27;45266;-77
2021/12/13 01:24:03;;;;;;;;;11.00;9.50;;;;;;;;5102816;27;46071;-77
2021/12/13 01:26:37;;;;;;;;;13.00;11.25;;;;;;;;5084755;27;47607;-78
2021/12/13 01:29:14;;;;;;;;;14.00;10.50;;;;;;;;5109697;27;45396;-77
2021/12/13 01:31:53;;;;;;;;;11.50;10.75;;;;;;;;5091384;27;45369;-77
2021/12/13 01:34:19;;;;;;;;;8.25;8.25;;;;;;;;5112925;27;45388;-77
2021/12/13 01:36:55;;;;;;;;;14.00;10.75;;;;;;;;5095689;27;48780;-77
2021/12/13 01:39:22;;;;;;;;;12.75;11.75;;;;;;;;5112633;27;45372;-77
2021/12/13 01:41:50;;;;;;;;;16.50;16.00;;;;;;;;5091988;27;45479;-77
2021/12/13 01:44:26;;;;;;;;;8.00;8.00;;;;;;;;5091960;27;45336;-78
2021/12/13 01:46:58;;;;;;;;;13.00;11.25;;;;;;;;5092153;27;47796;-77
2021/12/13 01:49:31;;;;;;;;;13.00;12.00;;;;;;;;5110748;27;45423;-76
2021/12/13 01:51:58;;;;;;;;;13.50;10.00;;;;;;;;5081142;27;45483;-76
2021/12/13 01:54:24;;;;;;;;;11.25;10.75;;;;;;;;5113657;27;45754;-77
2021/12/13 01:56:58;;;;;;;;;12.75;12.75;;;;;;;;5110854;27;45533;-77
2021/12/13 02:02:00;;;;;;;;;11.75;10.50;;;;;;;;5111263;27;45157;-78
2021/12/13 02:04:25;;;;;;;;;12.25;12.25;;;;;;;;5095383;27;45552;-77
2021/12/13 02:06:55;;;;;;;;;10.00;10.00;;;;;;;;5098086;27;49078;-78
2021/12/13 02:09:25;;;;;;;;;12.00;12.00;;;;;;;;5101686;27;45502;-79
2021/12/13 02:11:53;;;;;;;;;10.00;8.75;;;;;;;;5102556;27;45210;-76
2021/12/13 02:14:20;;;;;;;;;7.50;7.50;;;;;;;;5083550;27;45467;-77
2021/12/13 02:19:25;;;;;;;;;10.75;10.75;;;;;;;;5101239;27;44873;-78
2021/12/13 02:21:56;;;;;;;;;9.75;8.50;;;;;;;;5079739;27;45386;-78
2021/12/13 02:24:22;;;;;;;;;11.00;11.00;;;;;;;;5112262;27;45476;-79
2021/12/13 02:26:49;;;;;;;;;12.00;10.50;;;;;;;;5110022;27;46152;-77
2021/12/13 02:29:19;;;;;;;;;9.00;9.00;;;;;;;;5110570;27;45536;-76
2021/12/13 02:31:45;;;;;;;;;11.00;10.75;;;;;;;;5092172;27;45632;-78
2021/12/13 02:34:13;;;;;;;;;7.50;7.50;;;;;;;;5094778;27;45301;-79
2021/12/13 02:36:40;;;;;;;;;13.50;12.50;;;;;;;;5113170;27;45936;-78
2021/12/13 02:39:15;;;;;;;;;10.00;9.00;;;;;;;;5101332;27;45360;-78
2021/12/13 02:41:41;;;;;;;;;11.50;11.00;;;;;;;;5112487;27;45404;-80
2021/12/13 02:44:15;;;;;;;;;10.25;10.25;;;;;;;;5107856;27;45393;-77
2021/12/13 02:46:41;;;;;;;;;7.00;6.00;;;;;;;;5082706;27;47486;-77
2021/12/13 02:49:09;;;;;;;;;11.25;10.75;;;;;;;;5098717;27;45520;-78
2021/12/13 02:51:37;;;;;;;;;7.50;7.50;;;;;;;;5098648;27;45464;-79
2021/12/13 02:54:05;;;;;;;;;12.25;10.75;;;;;;;;5082610;27;45331;-79
2021/12/13 02:56:34;;;;;;;;;14.25;13.00;;;;;;;;5084020;27;47815;-78
2021/12/13 02:58:59;;;;;;;;;11.75;11.75;;;;;;;;5091347;27;45774;-77
2021/12/13 03:01:29;;;;;;;;;13.50;12.00;;;;;;;;5110215;27;45521;-77
2021/12/13 03:03:56;;;;;;;;;15.00;13.75;;;;;;;;5097914;27;45479;-78
2021/12/13 03:06:30;;;;;;;;;11.50;9.75;;;;;;;;5111441;27;48123;-78
2021/12/13 03:09:01;;;;;;;;;14.75;10.25;;;;;;;;5087132;27;45459;-78
2021/12/13 03:11:30;;;;;;;;;13.00;11.00;;;;;;;;5110155;27;45285;-77
2021/12/13 03:14:07;;;;;;;;;9.25;9.25;;;;;;;;5090873;27;46295;-77
2021/12/13 03:16:39;;;;;;;;;10.25;9.50;;;;;;;;5091139;27;47451;-77
2021/12/13 03:19:10;;;;;;;;;15.75;13.75;;;;;;;;5095007;27;45357;-78
2021/12/13 03:21:38;;;;;;;;;12.25;11.25;;;;;;;;5113167;27;45246;-78
2021/12/13 03:24:12;;;;;;;;;11.75;10.25;;;;;;;;5100174;27;45461;-77
2021/12/13 03:26:38;;;;;;;;;12.75;12.75;;;;;;;;5108187;27;45483;-78
2021/12/13 03:29:10;;;;;;;;;10.00;9.00;;;;;;;;5109183;27;45409;-77
2021/12/13 03:31:37;;;;;;;;;11.50;10.00;;;;;;;;5094072;27;45529;-77
2021/12/13 03:34:03;;;;;;;;;10.00;5.75;;;;;;;;5098332;27;45522;-77
2021/12/13 03:36:40;;;;;;;;;10.75;8.00;;;;;;;;5096924;27;47490;-76
2021/12/13 03:39:07;;;;;;;;;12.75;12.75;;;;;;;;5085025;27;45426;-78
2021/12/13 03:41:36;;;;;;;;;9.50;9.50;;;;;;;;5085729;27;45531;-78
2021/12/13 03:44:04;;;;;;;;;15.75;11.50;;;;;;;;5085463;27;47748;-77
2021/12/13 03:46:32;;;;;;;;;11.75;10.00;;;;;;;;5085267;27;47766;-77
2021/12/13 03:48:59;;;;;;;;;11.00;11.00;;;;;;;;5101955;27;45434;-76
2021/12/13 03:51:28;;;;;;;;;12.00;8.75;;;;;;;;5115586;27;45421;-75
2021/12/13 03:53:55;;;;;;;;;10.00;10.00;;;;;;;;5113052;27;45216;-77
2021/12/13 03:56:42;;;;;;;;;8.75;7.75;;;;;;;;5089833;27;47764;-76
2021/12/13 03:59:13;;;;;;;;;14.00;9.75;;;;;;;;5085731;27;45470;-76
2021/12/13 04:01:41;;;;;;;;;15.50;10.25;;;;;;;;5103020;27;45408;-76
2021/12/13 04:04:09;;;;;;;;;11.50;9.00;;;;;;;;5115722;27;45930;-77
2021/12/13 04:06:37;;;;;;;;;7.50;7.50;;;;;;;;5097018;27;47544;-76
2021/12/13 04:09:02;;;;;;;;;8.00;8.00;;;;;;;;5114361;27;45529;-76
2021/12/13 04:11:28;;;;;;;;;9.50;9.50;;;;;;;;5112686;27;45450;-76
2021/12/13 04:14:04;;;;;;;;;8.25;7.25;;;;;;;;5093396;27;45410;-76
2021/12/13 04:16:48;;;;;;;;;7.25;7.00;;;;;;;;5103681;27;45568;-75
2021/12/13 04:19:17;;;;;;;;;12.00;10.50;;;;;;;;5083749;27;45305;-76
2021/12/13 04:21:45;;;;;;;;;10.75;10.75;;;;;;;;5083299;27;45238;-75
2021/12/13 04:24:15;;;;;;;;;11.50;11.50;;;;;;;;5102884;27;45549;-76
2021/12/13 04:26:43;;;;;;;;;13.25;10.00;;;;;;;;5092961;27;46247;-77
2021/12/13 04:29:15;;;;;;;;;10.50;10.00;;;;;;;;5093542;27;45500;-76
2021/12/13 04:31:41;;;;;;;;;13.00;11.50;;;;;;;;5140890;27;44747;-75
2021/12/13 04:34:06;;;;;;;;;13.75;13.75;;;;;;;;5134716;27;44835;-76
2021/12/13 04:36:33;;;;;;;;;15.25;15.25;;;;;;;;5098566;27;47464;-76
2021/12/13 04:39:08;;;;;;;;;13.50;13.25;;;;;;;;5113325;27;45414;-77
2021/12/13 04:41:38;;;;;;;;;15.75;14.00;;;;;;;;5114621;27;45502;-77
2021/12/13 04:44:06;;;;;;;;;14.00;14.00;;;;;;;;5111175;27;45277;-78
2021/12/13 04:46:32;;;;;;;;;12.25;10.25;;;;;;;;5092813;27;49687;-76
2021/12/13 04:49:00;;;;;;;;;15.00;10.25;;;;;;;;5097715;27;45748;-76
2021/12/13 04:51:28;;;;;;;;;11.50;11.50;;;;;;;;5095662;27;45538;-76
2021/12/13 04:53:53;;;;;;;;;12.25;11.75;;;;;;;;5113575;27;45529;-78
2021/12/13 04:56:24;;;;;;;;;13.00;13.00;;;;;;;;5111802;27;45982;-76
2021/12/13 04:58:50;;;;;;;;;13.25;13.25;;;;;;;;5111723;27;45413;-76
2021/12/13 05:01:17;;;;;;;;;14.75;13.25;;;;;;;;5095335;27;45375;-76
2021/12/13 05:03:44;;;;;;;;;11.25;8.50;;;;;;;;5115015;27;45321;-75
2021/12/13 05:06:15;;;;;;;;;8.00;7.50;;;;;;;;5095275;27;47633;-75
2021/12/13 05:08:40;;;;;;;;;9.00;8.00;;;;;;;;5111138;27;45389;-73
2021/12/13 05:11:07;;;;;;;;;10.00;9.00;;;;;;;;5093283;27;45380;-76
2021/12/13 05:13:36;;;;;;;;;12.75;10.25;;;;;;;;5111227;27;45337;-77
2021/12/13 05:16:08;;;;;;;;;8.00;8.00;;;;;;;;5115171;27;46366;-78
2021/12/13 05:18:37;;;;;;;;;9.00;9.00;;;;;;;;5087781;27;46236;-77
2021/12/13 05:21:04;;;;;;;;;13.75;10.75;;;;;;;;5102721;27;45412;-77
2021/12/13 05:23:31;;;;;;;;;7.75;7.00;;;;;;;;5084335;27;45549;-76
2021/12/13 05:26:05;;;;;;;;;12.00;10.25;;;;;;;;5105197;27;46207;-76
2021/12/13 05:28:37;;;;;;;;;10.25;10.25;;;;;;;;5111228;27;45355;-74
2021/12/13 05:31:06;;;;;;;;;11.25;9.25;;;;;;;;5115224;27;45304;-76
2021/12/13 05:33:34;;;;;;;;;9.00;8.25;;;;;;;;5104709;27;45451;-75
2021/12/13 05:36:01;;;;;;;;;10.50;8.25;;;;;;;;5088657;27;47261;-76
2021/12/13 05:38:29;;;;;;;;;13.50;12.50;;;;;;;;5105214;27;45401;-76
2021/12/13 05:40:55;;;;;;;;;13.25;9.50;;;;;;;;5102964;27;45465;-76
2021/12/13 05:43:23;;;;;;;;;12.00;12.00;;;;;;;;5104836;27;45541;-77
2021/12/13 05:45:53;;;;;;;;;10.50;9.75;;;;;;;;5109830;27;45955;-75
2021/12/13 05:48:25;;;;;;;;;12.75;11.00;;;;;;;;5087175;27;45413;-76
2021/12/13 05:50:53;;;;;;;;;14.00;10.75;;;;;;;;5106851;27;45320;-77
2021/12/13 05:53:20;;;;;;;;;8.25;8.25;;;;;;;;5105084;27;45458;-77
2021/12/13 05:56:00;;;;;;;;;9.75;9.25;;;;;;;;5085403;27;48556;-76
2021/12/13 05:58:27;;;;;;;;;10.50;9.00;;;;;;;;5105014;27;45480;-74
2021/12/13 06:00:53;;;;;;;;;10.50;9.75;;;;;;;;5104200;27;45280;-78
2021/12/13 06:03:28;;;;;;;;;8.75;8.75;;;;;;;;5100994;27;45692;-77
2021/12/13 06:05:54;;;;;;;;;11.75;8.00;;;;;;;;5111359;27;47689;-76
2021/12/13 06:08:27;;;;;;;;;10.25;9.00;;;;;;;;5090363;27;45325;-77
2021/12/13 06:10:57;;;;;;;;;9.25;8.50;;;;;;;;5084790;27;45538;-78
2021/12/13 06:13:42;;;;;;;;;9.75;8.25;;;;;;;;5103873;27;45438;-77
2021/12/13 06:16:08;;;;;;;;;11.25;11.00;;;;;;;;5106807;27;46333;-77
2021/12/13 06:18:38;;;;;;;;;11.50;10.25;;;;;;;;5098551;27;45370;-75
2021/12/13 06:21:29;;;;;;;;;12.00;12.00;;;;;;;;5112581;27;45543;-77
2021/12/13 06:23:54;;;;;;;;;13.00;10.25;;;;;;;;5014843;28;45440;-77
2021/12/13 06:26:25;;;;;;;;;11.00;11.00;;;;;;;;5033524;28;46104;-77
2021/12/13 06:28:54;;;;;;;;;12.75;11.25;;;;;;;;5018348;28;45401;-76
2021/12/13 06:31:20;;;;;;;;;12.00;12.00;;;;;;;;5047028;28;45440;-80
2021/12/13 06:33:46;;;;;;;;;12.00;12.00;;;;;;;;5034687;28;45492;-74
2021/12/13 06:36:11;;;;;;;;;11.75;10.00;;;;;;;;5036636;28;47498;-74
2021/12/13 06:38:36;;;;;;;;;14.25;8.75;;;;;;;;5039940;28;46254;-74
2021/12/13 06:41:02;;;;;;;;;12.75;10.00;;;;;;;;5052423;28;45306;-77
2021/12/13 06:43:27;;;;;;;;;10.50;10.50;;;;;;;;5046787;28;45527;-79
2021/12/13 06:45:53;;;;;;;;;12.25;10.75;;;;;;;;5049552;28;47735;-75
2021/12/13 06:48:31;;;;;;;;;9.00;9.00;;;;;;;;5034821;28;45754;-81
2021/12/13 06:50:56;;;;;;;;;15.00;9.50;;;;;;;;5058173;28;45484;-82
2021/12/13 06:53:21;;;;;;;;;12.00;10.50;;;;;;;;5062506;28;45385;-81
2021/12/13 06:55:47;;;;;;;;;12.00;11.00;;;;;;;;5043308;28;47104;-80
2021/12/13 06:58:15;;;;;;;;;12.25;11.75;;;;;;;;5055718;28;45874;-81
2021/12/13 07:00:40;;;;;;;;;11.00;9.75;;;;;;;;5076176;27;45269;-81
2021/12/13 07:03:08;;;;;;;;;9.00;6.50;;;;;;;;5093507;27;45350;-82
2021/12/13 07:05:35;;;;;;;;;9.75;9.75;;;;;;;;5083270;27;45922;-81
2021/12/13 07:08:00;;;;;;;;;11.75;11.50;;;;;;;;5086958;27;45431;-79
2021/12/13 07:10:25;;;;;;;;;10.25;10.25;;;;;;;;5075486;28;45441;-82
2021/12/13 07:12:53;;;;;;;;;10.75;10.75;;;;;;;;5063352;27;45435;-82
2021/12/13 07:15:27;;;;;;;;;5.50;5.25;;;;;;;;5078687;27;48558;-81
2021/12/13 07:18:19;;;;;;;;;11.25;10.75;;;;;;;;5105793;27;45456;-82
2021/12/13 07:20:46;;;;;;;;;7.75;7.00;;;;;;;;5091785;27;45411;-82
2021/12/13 07:23:12;;;;;;;;;8.00;8.00;;;;;;;;5085197;27;44955;-82
2021/12/13 07:25:39;;;;;;;;;6.00;5.75;;;;;;;;5099503;27;47635;-82
2021/12/13 07:28:05;;;;;;;;;7.00;7.00;;;;;;;;5084220;27;47766;-82
2021/12/13 07:30:31;;;;;;;;;2.50;2.50;;;;;;;;5120437;27;45323;-81
2021/12/13 07:32:59;;;;;;;;;6.75;6.75;;;;;;;;5087066;27;45613;-81
2021/12/13 07:35:24;;;;;;;;;8.25;7.00;;;;;;;;5105405;27;45723;-83
2021/12/13 07:37:52;;;;;;;;;7.00;7.00;;;;;;;;5110278;27;45467;-82
2021/12/13 07:40:17;;;;;;;;;7.50;6.00;;;;;;;;5116235;27;47214;-82
2021/12/13 07:42:54;;;;;;;;;5.25;5.25;;;;;;;;5098070;27;45412;-81
2021/12/13 07:45:25;;;;;;;;;8.75;7.75;;;;;;;;5115309;27;46440;-82
2021/12/13 07:47:50;;;;;;;;;8.75;8.75;;;;;;;;5113300;27;45534;-82
2021/12/13 07:50:19;;;;;;;;;5.25;5.00;;;;;;;;5115032;27;45502;-82
2021/12/13 07:52:44;;;;;;;;;5.00;5.00;;;;;;;;5123400;27;45156;-81
2021/12/13 07:55:22;;;;;;;;;4.00;4.00;;;;;;;;5123987;27;46617;-70
2021/12/13 07:57:48;;;;;;;;;7.00;5.75;;;;;;;;5098397;27;45887;-81
2021/12/13 08:00:16;;;;;;;;;6.00;5.00;;;;;;;;5106681;27;45796;-81
2021/12/13 08:02:51;;;;;;;;;4.25;4.25;;;;;;;;5114854;27;45486;-80
2021/12/13 08:05:21;;;;;;;;;5.00;5.00;;;;;;;;5094485;27;46437;-81
2021/12/13 08:07:48;;;;;;;;;5.50;5.50;;;;;;;;5094548;27;45323;-82
2021/12/13 08:10:20;;;;;;;;;6.00;5.00;;;;;;;;5110874;27;45489;-82
2021/12/13 08:12:51;;;;;;;;;4.00;4.00;;;;;;;;5103111;27;45536;-82
2021/12/13 08:15:18;;;;;;;;;6.00;5.25;;;;;;;;5096158;27;47581;-82
2021/12/13 08:17:43;;;;;;;;;3.00;3.00;;;;;;;;5111508;27;45452;-83
2021/12/13 08:20:10;;;;;;;;;4.50;3.50;;;;;;;;5116186;27;45417;-83
2021/12/13 08:22:41;;;;;;;;;4.00;4.00;;;;;;;;5112998;27;45427;-81
2021/12/13 08:25:14;;;;;;;;;5.00;5.00;;;;;;;;5116039;27;46488;-82
2021/12/13 08:27:47;;;;;;;;;4.00;4.00;;;;;;;;5117077;27;45730;-82
2021/12/13 08:30:22;;;;;;;;;4.00;4.00;;;;;;;;5117185;27;45289;-82
2021/12/13 08:33:08;;;;;;;;;4.25;4.25;;;;;;;;5099020;27;45381;-81
2021/12/13 08:35:51;;;;;;;;;5.25;4.00;;;;;;;;5114691;27;47681;-82
2021/12/13 08:38:27;;;;;;;;;5.00;5.00;;;;;;;;5114578;27;45427;-82
2021/12/13 08:40:53;;;;;;;;;3.00;3.00;;;;;;;;5093509;27;45470;-82
2021/12/13 08:43:32;;;;;;;;;4.75;4.00;;;;;;;;5083578;27;45420;-81
2021/12/13 08:45:57;;;;;;;;;3.00;3.00;;;;;;;;5101115;27;46146;-82
2021/12/13 08:48:22;;;;;;;;;6.50;5.00;;;;;;;;5096311;27;45349;-81
2021/12/13 08:50:50;;;;;;;;;5.00;5.00;;;;;;;;5093229;27;45378;-80
2021/12/13 08:53:20;;;;;;;;;5.50;4.00;;;;;;;;5115924;27;45658;-81
2021/12/13 08:55:54;;;;;;;;;4.50;4.50;;;;;;;;5098517;27;48804;-82
2021/12/13 08:58:20;;;;;;;;;3.75;3.75;;;;;;;;5098545;27;45412;-80
2021/12/13 09:00:54;;;;;;;;;7.00;7.00;;;;;;;;5116639;27;45534;-81
2021/12/13 09:03:25;;;;;;;;;9.00;8.00;;;;;;;;5098757;27;45581;-80
2021/12/13 09:05:54;;;;;;;;;11.00;9.00;;;;;;;;5116126;27;45675;-82
2021/12/13 09:08:24;;;;;;;;;10.75;10.75;;;;;;;;5115503;27;45358;-81
2021/12/13 09:10:52;;;;;;;;;9.50;8.75;;;;;;;;5095427;27;45717;-82
2021/12/13 09:13:19;;;;;;;;;10.00;8.75;;;;;;;;5116168;27;45484;-81
2021/12/13 09:15:47;;;;;;;;;6.50;6.25;;;;;;;;5115985;27;46701;-82
2021/12/13 09:18:18;;;;;;;;;7.25;7.25;;;;;;;;5118126;27;45580;-83
2021/12/13 09:20:48;;;;;;;;;4.50;4.50;;;;;;;;5098825;27;46077;-82
2021/12/13 09:23:28;;;;;;;;;8.75;7.50;;;;;;;;5097454;27;45496;-82
2021/12/13 09:25:59;;;;;;;;;8.50;8.50;;;;;;;;5095100;27;48122;-82
2021/12/13 09:28:24;;;;;;;;;9.50;7.25;;;;;;;;5113940;27;45430;-81
2021/12/13 09:30:55;;;;;;;;;7.50;6.00;;;;;;;;5114845;27;45471;-82
2021/12/13 09:33:29;;;;;;;;;8.50;8.50;;;;;;;;5101105;27;45552;-82
2021/12/13 09:35:59;;;;;;;;;6.75;6.75;;;;;;;;5116957;27;45694;-79
2021/12/13 09:38:37;;;;;;;;;6.50;5.00;;;;;;;;5098244;27;45492;-79
2021/12/13 09:41:15;;;;;;;;;6.00;4.50;;;;;;;;5118134;27;45460;-81
2021/12/13 09:43:50;;;;;;;;;6.00;6.00;;;;;;;;5118136;27;45363;-82
2021/12/13 09:46:19;;;;;;;;;7.25;7.25;;;;;;;;5115533;27;45373;-82
2021/12/13 09:48:49;;;;;;;;;7.25;6.25;;;;;;;;5115277;27;45462;-81
2021/12/13 09:51:21;;;;;;;;;5.75;5.75;;;;;;;;5117311;27;45468;-81
2021/12/13 09:53:48;;;;;;;;;4.75;3.50;;;;;;;;5097112;27;45521;-81
2021/12/13 09:56:15;;;;;;;;;4.00;4.00;;;;;;;;5099280;27;47880;-82
2021/12/13 09:58:41;;;;;;;;;4.75;4.50;;;;;;;;5116584;27;45479;-82
2021/12/13 10:01:09;;;;;;;;;8.25;8.25;;;;;;;;5098214;27;45250;-82
2021/12/13 10:03:56;;;;;;;;;8.50;8.50;;;;;;;;5117642;27;45564;-80
2021/12/13 10:06:29;;;;;;;;;8.00;5.75;;;;;;;;5117719;27;45364;-82
2021/12/13 10:09:04;;;;;;;;;5.00;5.00;;;;;;;;5098684;27;45520;-82
2021/12/13 10:11:58;;;;;;;;;6.00;6.00;;;;;;;;5112600;27;45518;-80
2021/12/13 10:14:28;;;;;;;;;4.50;4.50;;;;;;;;5096041;27;45750;-82
2021/12/13 10:16:55;;;;;;;;;4.75;4.00;;;;;;;;5114864;27;45538;-81
2021/12/13 10:19:46;;;;;;;;;6.00;6.00;;;;;;;;5113638;27;45352;-82
2021/12/13 10:22:13;;;;;;;;;5.75;5.75;;;;;;;;5107367;27;45376;-81
2021/12/13 10:24:41;;;;;;;;;6.00;5.50;;;;;;;;5114141;27;45225;-81
2021/12/13 10:27:08;;;;;;;;;5.00;5.00;;;;;;;;5096822;27;48700;-76
2021/12/13 10:29:34;;;;;;;;;6.00;6.00;;;;;;;;5110088;27;45522;-82
2021/12/13 10:32:08;;;;;;;;;8.25;7.00;;;;;;;;5109870;27;45301;-81
2021/12/13 10:34:35;;;;;;;;;4.50;4.50;;;;;;;;5094467;27;45527;-81
2021/12/13 10:37:12;;;;;;;;;4.75;4.75;;;;;;;;5111058;27;46769;-81
2021/12/13 10:39:40;;;;;;;;;5.25;4.00;;;;;;;;5115426;27;45354;-81
2021/12/13 10:42:11;;;;;;;;;5.00;3.75;;;;;;;;5099631;27;45273;-81
2021/12/13 10:44:42;;;;;;;;;4.00;4.00;;;;;;;;5112276;27;44942;-79
2021/12/13 10:47:10;;;;;;;;;3.50;3.50;;;;;;;;5129175;27;45793;-83
2021/12/13 10:49:36;;;;;;;;;7.50;6.00;;;;;;;;5109140;27;45585;-83
2021/12/13 10:52:11;;;;;;;;;4.00;4.00;;;;;;;;5114139;27;45171;-82
2021/12/13 10:54:39;;;;;;;;;5.00;5.00;;;;;;;;5094132;27;45432;-81
2021/12/13 10:57:07;;;;;;;;;5.50;3.75;;;;;;;;5109995;27;46459;-82
2021/12/13 10:59:33;;;;;;;;;6.75;6.00;;;;;;;;5109084;27;45466;-81
2021/12/13 11:02:01;;;;;;;;;6.75;3.00;;;;;;;;5091120;27;45511;-83
2021/12/13 11:04:29;;;;;;;;;7.00;6.00;;;;;;;;5091458;27;45517;-81
2021/12/13 11:06:55;;;;;;;;;6.25;5.00;;;;;;;;5095150;27;46897;-82
2021/12/13 11:09:23;;;;;;;;;5.00;5.00;;;;;;;;5111269;27;45405;-82
2021/12/13 11:11:55;;;;;;;;;7.00;6.50;;;;;;;;5090165;27;45670;-83
2021/12/13 11:14:21;;;;;;;;;8.00;8.00;;;;;;;;5086211;27;45733;-73
2021/12/13 11:16:49;;;;;;;;;8.25;8.25;;;;;;;;5084185;27;48423;-75
2021/12/13 11:19:18;;;;;;;;;8.75;7.00;;;;;;;;5085322;27;45472;-74
2021/12/13 11:21:44;;;;;;;;;6.25;6.25;;;;;;;;5093861;27;45246;-73
2021/12/13 11:24:13;;;;;;;;;7.25;7.25;;;;;;;;5098619;27;45448;-73
2021/12/13 11:26:41;;;;;;;;;3.25;3.25;;;;;;;;5107932;27;46333;-76
2021/12/13 11:29:07;;;;;;;;;7.50;7.50;;;;;;;;5108654;27;45197;-78
2021/12/13 11:31:33;;;;;;;;;4.75;4.75;;;;;;;;5079665;27;45484;-75
2021/12/13 11:33:58;;;;;;;;;6.25;5.50;;;;;;;;5094577;27;45399;-74
2021/12/13 11:36:42;;;;;;;;;7.00;7.00;;;;;;;;5091530;27;45491;-77
2021/12/13 11:39:28;;;;;;;;;6.00;6.00;;;;;;;;5099776;27;45305;-74
2021/12/13 11:41:53;;;;;;;;;5.75;5.75;;;;;;;;5031089;28;45786;-75
2021/12/13 11:44:39;;;;;;;;;5.00;5.00;;;;;;;;5005735;28;45261;-75
2021/12/13 11:47:23;;;;;;;;;8.00;5.00;;;;;;;;5006828;28;48855;-78
2021/12/13 11:50:07;;;;;;;;;5.00;5.00;;;;;;;;5022397;28;45836;-73
2021/12/13 11:52:51;;;;;;;;;7.00;6.25;;;;;;;;5028417;28;45521;-77
2021/12/13 11:55:35;;;;;;;;;4.75;4.75;;;;;;;;5016013;28;45581;-75
2021/12/13 11:58:19;;;;;;;;;9.25;9.25;;;;;;;;5034414;28;46529;-78
2021/12/13 12:00:59;;;;;;;;;9.50;8.50;;;;;;;;5016687;28;45336;-77
2021/12/13 12:03:42;;;;;;;;;8.50;8.50;;;;;;;;5015024;28;45451;-78
2021/12/13 12:06:08;;;;;;;;;8.75;8.25;;;;;;;;5029918;28;45472;-75
2021/12/13 12:08:52;;;;;;;;;12.00;10.75;;;;;;;;5023535;28;47557;-74
2021/12/13 12:11:17;;;;;;;;;14.00;12.00;;;;;;;;5022477;28;45825;-78
2021/12/13 12:14:05;;;;;;;;;14.00;12.50;;;;;;;;5022466;28;45483;-77
2021/12/13 12:16:33;;;;;;;;;14.50;14.25;;;;;;;;5029468;28;46314;-77
2021/12/13 12:18:59;;;;;;;;;12.50;11.75;;;;;;;;5063661;27;46310;-79
2021/12/13 12:21:43;;;;;;;;;13.25;13.25;;;;;;;;5095915;27;45495;-81
2021/12/13 12:24:08;;;;;;;;;15.75;14.00;;;;;;;;5093628;27;45499;-81
2021/12/13 12:26:34;;;;;;;;;14.75;12.75;;;;;;;;5092843;27;45522;-81
2021/12/13 12:29:02;;;;;;;;;14.00;13.00;;;;;;;;5113281;27;45384;-83
2021/12/13 12:31:32;;;;;;;;;12.50;11.00;;;;;;;;5115327;27;45349;-81
2021/12/13 12:33:58;;;;;;;;;11.25;8.50;;;;;;;;5080830;27;45396;-82
2021/12/13 12:36:36;;;;;;;;;16.00;13.25;;;;;;;;5102470;27;45387;-82
2021/12/13 12:39:04;;;;;;;;;12.25;12.25;;;;;;;;5088511;27;47535;-80
2021/12/13 12:41:45;;;;;;;;;12.75;11.75;;;;;;;;5112859;27;45412;-77
2021/12/13 12:44:15;;;;;;;;;16.00;13.50;;;;;;;;5108148;27;45365;-81
2021/12/13 12:46:41;;;;;;;;;13.00;9.25;;;;;;;;5091694;27;45271;-81
2021/12/13 12:49:12;;;;;;;;;9.50;9.25;;;;;;;;5115516;27;45486;-81
2021/12/13 12:51:38;;;;;;;;;14.00;12.25;;;;;;;;5094263;27;46041;-82
2021/12/13 12:54:04;;;;;;;;;13.25;13.25;;;;;;;;5112008;27;45704;-82
2021/12/13 12:56:35;;;;;;;;;11.50;11.50;;;;;;;;5087341;27;45606;-81
2021/12/13 12:59:14;;;;;;;;;16.00;16.00;;;;;;;;5106315;27;46856;-82
2021/12/13 13:01:55;;;;;;;;;19.00;15.00;;;;;;;;5107934;27;45959;-82
2021/12/13 13:04:27;;;;;;;;;13.00;12.50;;;;;;;;5094740;27;45427;-80
2021/12/13 13:06:57;;;;;;;;;14.75;12.75;;;;;;;;5097202;27;47807;-82
2021/12/13 13:09:32;;;;;;;;;13.75;13.75;;;;;;;;5098978;27;47798;-82
2021/12/13 13:11:57;;;;;;;;;14.50;14.50;;;;;;;;5115837;27;45469;-81
2021/12/13 13:14:30;;;;;;;;;13.00;11.25;;;;;;;;5114604;27;45456;-82
2021/12/13 13:16:57;;;;;;;;;12.00;12.00;;;;;;;;5094520;27;45509;-82
2021/12/13 13:19:22;;;;;;;;;11.75;11.75;;;;;;;;5114539;27;45412;-82
2021/12/13 13:21:48;;;;;;;;;10.00;10.00;;;;;;;;5114775;27;45356;-81
2021/12/13 13:24:13;;;;;;;;;14.00;14.00;;;;;;;;5116194;27;45896;-80
2021/12/13 13:26:40;;;;;;;;;13.75;9.50;;;;;;;;5114967;27;45463;-82
2021/12/13 13:29:07;;;;;;;;;10.00;10.00;;;;;;;;5097021;27;47748;-81
2021/12/13 13:31:53;;;;;;;;;11.75;11.75;;;;;;;;5093223;27;45588;-79
2021/12/13 13:34:24;;;;;;;;;15.00;13.00;;;;;;;;5094908;27;45459;-82
2021/12/13 13:36:52;;;;;;;;;13.00;11.75;;;;;;;;5096384;27;45603;-79
2021/12/13 13:39:26;;;;;;;;;13.00;12.00;;;;;;;;5097994;27;48000;-83
2021/12/13 13:41:57;;;;;;;;;18.50;17.50;;;;;;;;5096133;27;45545;-81
2021/12/13 13:44:24;;;;;;;;;19.25;16.75;;;;;;;;5095826;27;45436;-82
2021/12/13 13:46:58;;;;;;;;;14.00;14.00;;;;;;;;5097568;27;45463;-82
2021/12/13 13:49:23;;;;;;;;;11.75;9.50;;;;;;;;5114417;27;46597;-81
2021/12/13 13:51:49;;;;;;;;;8.00;8.00;;;;;;;;5098470;27;45459;-78
2021/12/13 13:54:14;;;;;;;;;12.25;11.00;;;;;;;;5121210;27;45254;-83
2021/12/13 13:56:41;;;;;;;;;15.50;15.25;;;;;;;;5098067;27;45446;-81
2021/12/13 13:59:12;;;;;;;;;18.00;18.00;;;;;;;;5097102;27;47095;-81
2021/12/13 14:01:47;;;;;;;;;12.75;11.75;;;;;;;;5113286;27;44909;-83
2021/12/13 14:04:23;;;;;;;;;15.00;14.00;;;;;;;;5093106;27;45571;-82
2021/12/13 14:06:54;;;;;;;;;16.25;14.25;;;;;;;;5114551;27;45525;-82
2021/12/13 14:09:23;;;;;;;;;7.50;6.75;;;;;;;;5114721;27;45578;-83
2021/12/13 14:11:52;;;;;;;;;14.75;13.75;;;;;;;;5096110;27;46510;-79
2021/12/13 14:14:18;;;;;;;;;17.75;16.75;;;;;;;;5114918;27;45373;-81
2021/12/13 14:16:45;;;;;;;;;17.00;17.00;;;;;;;;5095703;27;45435;-82
2021/12/13 14:19:30;;;;;;;;;15.25;15.25;;;;;;;;5113735;27;45361;-82
2021/12/13 14:21:56;;;;;;;;;20.25;17.50;;;;;;;;5113879;27;45190;-82
2021/12/13 14:24:35;;;;;;;;;13.25;12.00;;;;;;;;5115883;27;45324;-82
2021/12/13 14:27:16;;;;;;;;;13.50;13.50;;;;;;;;5096610;27;45526;-82
2021/12/13 14:29:41;;;;;;;;;13.75;13.25;;;;;;;;5112120;27;45871;-82
2021/12/13 14:32:08;;;;;;;;;14.00;13.00;;;;;;;;5114116;27;45677;-83
2021/12/13 14:34:34;;;;;;;;;17.75;17.75;;;;;;;;5095423;27;45310;-82
2021/12/13 14:37:01;;;;;;;;;13.25;11.75;;;;;;;;5097707;27;44780;-81
2021/12/13 14:39:29;;;;;;;;;14.00;12.00;;;;;;;;5116061;27;46358;-82
2021/12/13 14:41:56;;;;;;;;;15.00;15.00;;;;;;;;5114666;27;45508;-78
2021/12/13 14:44:25;;;;;;;;;13.75;13.75;;;;;;;;5096012;27;45546;-82
2021/12/13 14:46:55;;;;;;;;;16.00;15.50;;;;;;;;5093518;27;45611;-80
2021/12/13 14:49:24;;;;;;;;;13.50;13.50;;;;;;;;5113722;27;46579;-81
2021/12/13 14:51:58;;;;;;;;;13.75;9.25;;;;;;;;5095093;27;45649;-81